Time;durP1;ratioP1;P1;durP2;ratioP2;P2;SDS_P1;SDS_P2;PMS_P1;PMS_P2;Temp;Humidity;BMP_temperature;BMP_pressure;BME280_temperature;BME280_humidity;BME280_pressure;Samples;Min_cycle;Max_cycle;Signal;HPM_P1;HPM_P2
2023/04/23 00:00:51;;;;;;;25.67;15.77;;;;;;;9.86;100.00;100541.47;4980555;28;20112;-72
2023/04/23 00:03:18;;;;;;;27.08;16.17;;;;;;;9.84;100.00;100533.06;4963848;28;20057;-71
2023/04/23 00:05:44;;;;;;;32.05;17.33;;;;;;;9.79;100.00;100532.72;4966522;28;21388;-72
2023/04/23 00:08:10;;;;;;;32.13;17.48;;;;;;;9.76;100.00;100538.22;4964199;28;20071;-71
2023/04/23 00:10:36;;;;;;;33.80;18.13;;;;;;;9.76;100.00;100540.81;4962841;28;20030;-71
2023/04/23 00:13:01;;;;;;;28.10;17.60;;;;;;;9.74;100.00;100537.56;4964933;28;20035;-71
2023/04/23 00:15:27;;;;;;;34.03;18.95;;;;;;;9.73;100.00;100530.75;4965439;28;20027;-71
2023/04/23 00:17:53;;;;;;;29.08;17.45;;;;;;;9.71;100.00;100528.31;4960171;28;20089;-71
2023/04/23 00:20:19;;;;;;;28.90;17.23;;;;;;;9.68;100.00;100539.00;4978378;28;20038;-71
2023/04/23 00:22:44;;;;;;;27.80;17.08;;;;;;;9.66;100.00;100545.28;4961485;28;20035;-72
2023/04/23 00:25:10;;;;;;;28.90;16.58;;;;;;;9.65;100.00;100543.69;4962958;28;20038;-72
2023/04/23 00:27:36;;;;;;;28.75;16.15;;;;;;;9.65;100.00;100547.06;4979215;28;20039;-71
2023/04/23 00:30:03;;;;;;;27.65;16.08;;;;;;;9.64;100.00;100545.44;4961364;28;20038;-71
2023/04/23 00:32:29;;;;;;;31.08;17.50;;;;;;;9.62;100.00;100547.38;4963365;28;20710;-71
2023/04/23 00:34:55;;;;;;;26.42;15.70;;;;;;;9.59;100.00;100546.88;4966607;28;20039;-72
2023/04/23 00:37:21;;;;;;;32.58;17.80;;;;;;;9.59;100.00;100544.28;4981535;28;20038;-72
2023/04/23 00:39:47;;;;;;;30.20;16.55;;;;;;;9.59;100.00;100539.09;4963559;28;20493;-72
2023/04/23 00:42:16;;;;;;;34.55;19.35;;;;;;;9.57;100.00;100535.88;4980456;28;20035;-71
2023/04/23 00:44:42;;;;;;;32.08;17.65;;;;;;;9.55;100.00;100536.84;4962207;28;20074;-72
2023/04/23 00:47:08;;;;;;;33.50;18.65;;;;;;;9.57;100.00;100525.50;4962310;28;20416;-72
2023/04/23 00:49:34;;;;;;;37.13;20.17;;;;;;;9.53;100.00;100531.03;4978668;28;20146;-72
2023/04/23 00:52:00;;;;;;;38.63;20.63;;;;;;;9.52;100.00;100531.16;4979020;28;20034;-72
2023/04/23 00:54:26;;;;;;;36.33;19.38;;;;;;;9.44;100.00;100531.94;4970313;28;20061;-71
2023/04/23 00:56:53;;;;;;;34.60;18.55;;;;;;;9.39;100.00;100526.41;4964658;28;20034;-71
2023/04/23 00:59:19;;;;;;;40.65;20.23;;;;;;;9.47;100.00;100517.88;4968612;28;20094;-71
2023/04/23 01:01:46;;;;;;;37.85;20.05;;;;;;;9.44;100.00;100519.00;4977397;28;20848;-71
2023/04/23 01:04:17;;;;;;;37.65;20.20;;;;;;;9.37;100.00;100519.78;4965830;28;20047;-71
2023/04/23 01:06:45;;;;;;;40.38;21.90;;;;;;;9.37;100.00;100507.66;4982160;28;20129;-72
2023/04/23 01:09:11;;;;;;;37.30;20.50;;;;;;;9.31;100.00;100510.88;4966572;28;20573;-72
2023/04/23 01:11:41;;;;;;;34.85;19.48;;;;;;;9.21;100.00;100512.75;4966924;28;20034;-72
2023/04/23 01:14:07;;;;;;;36.15;19.17;;;;;;;9.18;100.00;100508.69;4981630;28;20035;-72
2023/04/23 01:16:35;;;;;;;39.35;21.45;;;;;;;9.19;100.00;100496.56;4966631;28;20078;-72
2023/04/23 01:19:01;;;;;;;36.95;20.00;;;;;;;9.16;100.00;100498.50;4980784;28;20038;-71
2023/04/23 01:21:28;;;;;;;38.20;20.17;;;;;;;9.11;100.00;100497.34;4965306;28;20031;-72
2023/04/23 01:23:54;;;;;;;33.20;19.90;;;;;;;9.11;100.00;100492.97;4978096;28;20109;-72
2023/04/23 01:26:20;;;;;;;31.17;18.60;;;;;;;9.02;100.00;100490.50;4977558;28;20031;-71
2023/04/23 01:28:46;;;;;;;40.97;21.85;;;;;;;9.06;100.00;100486.63;4980256;28;20126;-72
2023/04/23 01:31:13;;;;;;;37.35;20.38;;;;;;;8.98;100.00;100487.41;4967897;28;20445;-71
2023/04/23 01:33:41;;;;;;;30.55;17.98;;;;;;;8.93;100.00;100485.28;4979736;28;20552;-71
2023/04/23 01:36:07;;;;;;;37.92;20.23;;;;;;;8.92;100.00;100483.66;4970079;28;20082;-71
2023/04/23 01:38:34;;;;;;;34.53;20.05;;;;;;;8.90;100.00;100490.75;4967571;28;20959;-72
2023/04/23 01:41:00;;;;;;;35.08;19.90;;;;;;;8.87;100.00;100488.47;4983968;28;20034;-72
2023/04/23 01:43:27;;;;;;;35.85;19.73;;;;;;;8.84;100.00;100487.97;4970703;28;20046;-72
2023/04/23 01:45:52;;;;;;;29.52;17.80;;;;;;;8.82;100.00;100484.72;4986498;28;20034;-72
2023/04/23 01:48:18;;;;;;;33.45;18.45;;;;;;;8.83;100.00;100486.34;4984654;28;20393;-72
2023/04/23 01:50:43;;;;;;;34.92;17.65;;;;;;;8.79;100.00;100485.03;4971460;28;20068;-72
2023/04/23 01:53:09;;;;;;;30.08;16.23;;;;;;;8.75;100.00;100493.06;4981388;28;20496;-72
2023/04/23 01:55:40;;;;;;;29.15;16.38;;;;;;;8.75;100.00;100493.06;4982462;28;20030;-72
2023/04/23 01:58:06;;;;;;;26.08;16.25;;;;;;;8.74;100.00;100488.06;4962471;28;20138;-72
2023/04/23 02:00:31;;;;;;;29.63;17.20;;;;;;;8.71;100.00;100485.78;4968259;28;20141;-72
2023/04/23 02:02:57;;;;;;;28.50;16.35;;;;;;;8.68;100.00;100488.66;4983573;28;20034;-71
2023/04/23 02:05:24;;;;;;;28.20;15.95;;;;;;;8.65;100.00;100497.53;4983942;28;20556;-72
2023/04/23 02:07:50;;;;;;;28.50;16.25;;;;;;;8.62;100.00;100491.84;4967114;28;20038;-72
2023/04/23 02:10:17;;;;;;;28.58;16.65;;;;;;;8.60;100.00;100497.16;4979503;28;20121;-72
2023/04/23 02:12:43;;;;;;;29.48;16.75;;;;;;;8.58;100.00;100491.34;4979199;28;20053;-72
2023/04/23 02:15:10;;;;;;;29.85;16.90;;;;;;;8.56;100.00;100488.91;4962786;28;20058;-71
2023/04/23 02:17:36;;;;;;;28.08;16.17;;;;;;;8.56;100.00;100490.69;4978498;28;20106;-72
2023/04/23 02:20:02;;;;;;;32.65;17.55;;;;;;;8.61;100.00;100477.28;4976559;28;20098;-71
2023/04/23 02:22:28;;;;;;;36.75;18.92;;;;;;;8.60;100.00;100479.06;4980003;28;20034;-72
2023/04/23 02:24:54;;;;;;;32.95;17.63;;;;;;;8.61;100.00;100478.13;4982028;28;20077;-72
2023/04/23 02:27:20;;;;;;;33.00;17.95;;;;;;;8.63;100.00;100483.16;4970608;28;20074;-72
2023/04/23 02:29:46;;;;;;;32.55;18.52;;;;;;;8.58;100.00;100473.25;4981340;28;20039;-72
2023/04/23 02:32:12;;;;;;;37.00;21.05;;;;;;;8.53;100.00;100483.22;4965720;28;20398;-72
2023/04/23 02:34:37;;;;;;;34.70;18.20;;;;;;;8.51;100.00;100480.81;4985049;28;20109;-72
2023/04/23 02:37:06;;;;;;;37.38;20.05;;;;;;;8.55;100.00;100484.72;4982348;28;20034;-71
2023/04/23 02:39:32;;;;;;;38.38;20.48;;;;;;;8.54;100.00;100482.28;4967529;28;20046;-72
2023/04/23 02:41:58;;;;;;;34.65;18.88;;;;;;;8.52;100.00;100479.81;4981041;28;20022;-72
2023/04/23 02:44:24;;;;;;;41.65;20.95;;;;;;;8.62;100.00;100471.97;4972339;28;20043;-71
2023/04/23 02:46:50;;;;;;;39.28;20.23;;;;;;;8.63;100.00;100476.19;4970050;28;20583;-71
2023/04/23 02:49:16;;;;;;;38.05;21.30;;;;;;;8.68;100.00;100473.16;4973307;28;20030;-71
2023/04/23 02:51:42;;;;;;;43.88;21.38;;;;;;;8.62;100.00;100471.97;4971053;28;20049;-71
2023/04/23 02:54:07;;;;;;;37.30;20.90;;;;;;;8.61;100.00;100462.63;4965977;28;20051;-72
2023/04/23 02:56:33;;;;;;;41.05;22.15;;;;;;;8.59;100.00;100464.56;4982486;28;20097;-71
2023/04/23 02:59:00;;;;;;;36.70;19.92;;;;;;;8.60;100.00;100466.16;4988478;28;20041;-71
2023/04/23 03:01:25;;;;;;;37.45;20.23;;;;;;;8.53;100.00;100459.97;4985009;28;20042;-71
2023/04/23 03:03:51;;;;;;;42.10;21.30;;;;;;;8.55;100.00;100464.03;4982703;28;20517;-71
2023/04/23 03:06:17;;;;;;;41.17;21.33;;;;;;;8.59;100.00;100461.97;4967273;28;20085;-71
2023/04/23 03:08:42;;;;;;;41.97;21.85;;;;;;;8.63;100.00;100460.69;4982832;28;20039;-71
2023/04/23 03:11:08;;;;;;;41.10;22.80;;;;;;;8.61;100.00;100452.28;4969230;28;20027;-71
2023/04/23 03:13:34;;;;;;;41.35;22.50;;;;;;;8.62;100.00;100458.25;4967356;28;20031;-71
2023/04/23 03:15:59;;;;;;;42.53;23.30;;;;;;;8.65;100.00;100456.19;4985774;28;20540;-71
2023/04/23 03:18:25;;;;;;;39.92;22.05;;;;;;;8.66;100.00;100454.41;4949091;28;20055;-71
2023/04/23 03:20:52;;;;;;;40.92;22.58;;;;;;;8.58;100.00;100465.50;4981916;28;20035;-71
2023/04/23 03:23:18;;;;;;;41.30;24.17;;;;;;;8.53;100.00;100463.38;4962580;28;20038;-71
2023/04/23 03:25:45;;;;;;;43.85;22.52;;;;;;;8.48;100.00;100465.59;4987843;28;20041;-71
2023/04/23 03:28:10;;;;;;;36.45;21.00;;;;;;;8.46;100.00;100469.31;4967993;28;20538;-71
2023/04/23 03:30:37;;;;;;;39.33;23.33;;;;;;;8.47;100.00;100463.97;4969176;28;20493;-71
2023/04/23 03:33:02;;;;;;;42.22;23.63;;;;;;;8.54;100.00;100474.53;4964559;28;20035;-71
2023/04/23 03:35:28;;;;;;;39.78;21.95;;;;;;;8.53;100.00;100468.53;4968597;28;20026;-71
2023/04/23 03:37:56;;;;;;;44.58;22.92;;;;;;;8.51;100.00;100462.72;4981890;28;20033;-72
2023/04/23 03:40:23;;;;;;;43.75;23.52;;;;;;;8.50;100.00;100461.09;4985318;28;20080;-71
2023/04/23 03:42:51;;;;;;;38.47;20.73;;;;;;;8.47;100.00;100463.16;4979444;28;20046;-71
2023/04/23 03:45:24;;;;;;;40.85;22.95;;;;;;;8.48;100.00;100455.25;4980398;28;20035;-71
2023/04/23 03:47:50;;;;;;;44.08;22.50;;;;;;;8.48;100.00;100460.44;4981740;28;21328;-71
2023/04/23 03:50:16;;;;;;;36.80;21.48;;;;;;;8.46;100.00;100453.78;4982808;28;20034;-71
2023/04/23 03:52:44;;;;;;;43.33;22.58;;;;;;;8.49;100.00;100450.88;4963837;28;20035;-71
2023/04/23 03:55:16;;;;;;;37.80;21.77;;;;;;;8.45;100.00;100444.41;4967204;28;20516;-71
2023/04/23 03:57:44;;;;;;;39.45;22.35;;;;;;;8.51;100.00;100447.22;4979604;28;20038;-71
2023/04/23 04:00:23;;;;;;;45.72;22.15;;;;;;;8.61;100.00;100452.28;4969593;28;20494;-71
2023/04/23 04:02:49;;;;;;;45.55;23.38;;;;;;;8.57;100.00;100444.03;4979641;28;20060;-71
2023/04/23 04:05:14;;;;;;;46.03;23.92;;;;;;;8.49;100.00;100441.34;4978990;28;20425;-71
2023/04/23 04:07:40;;;;;;;46.58;23.42;;;;;;;8.45;100.00;100447.00;4975452;28;20050;-71
2023/04/23 04:10:06;;;;;;;44.33;22.05;;;;;;;8.43;100.00;100447.13;4951102;28;20030;-71
2023/04/23 04:12:32;;;;;;;46.13;25.65;;;;;;;8.47;100.00;100447.66;4967507;28;20565;-72
2023/04/23 04:14:57;;;;;;;53.20;28.55;;;;;;;8.47;100.00;100456.22;4968452;28;20523;-70
2023/04/23 04:17:23;;;;;;;47.80;25.98;;;;;;;8.44;100.00;100458.28;4963702;28;20034;-71
2023/04/23 04:19:48;;;;;;;50.38;26.80;;;;;;;8.47;100.00;100452.81;4979339;28;20043;-71
2023/04/23 04:22:15;;;;;;;47.60;27.15;;;;;;;8.56;100.00;100446.75;4979499;28;20031;-72
2023/04/23 04:24:40;;;;;;;45.88;25.17;;;;;;;8.44;100.00;100447.94;4968376;28;20038;-71
2023/04/23 04:27:06;;;;;;;40.42;22.52;;;;;;;8.38;100.00;100455.31;4967074;28;20125;-71
2023/04/23 04:29:32;;;;;;;42.88;23.63;;;;;;;8.39;100.00;100456.13;4966022;28;20035;-71
2023/04/23 04:31:58;;;;;;;42.00;22.20;;;;;;;8.34;100.00;100464.34;4966326;28;21679;-71
2023/04/23 04:34:24;;;;;;;45.17;23.85;;;;;;;8.37;100.00;100464.03;4970080;28;20046;-71
2023/04/23 04:36:52;;;;;;;43.17;23.92;;;;;;;8.33;100.00;100454.16;4967505;28;20030;-72
2023/04/23 04:39:18;;;;;;;42.15;22.58;;;;;;;8.33;100.00;100452.38;4981258;28;20121;-71
2023/04/23 04:41:44;;;;;;;45.08;23.77;;;;;;;8.50;100.00;100447.34;4967292;28;20074;-72
2023/04/23 04:44:10;;;;;;;47.90;24.52;;;;;;;8.39;100.00;100449.19;4973689;28;20065;-71
2023/04/23 04:46:39;;;;;;;41.25;23.50;;;;;;;8.42;100.00;100455.03;4968707;28;20456;-71
2023/04/23 04:49:09;;;;;;;42.42;22.83;;;;;;;8.38;100.00;100457.91;4979144;28;20031;-71
2023/04/23 04:51:39;;;;;;;45.15;23.83;;;;;;;8.46;100.00;100466.72;4965079;28;20146;-71
2023/04/23 04:54:06;;;;;;;40.97;22.63;;;;;;;8.50;100.00;100468.03;4979582;28;20138;-72
2023/04/23 04:56:33;;;;;;;40.28;22.92;;;;;;;8.46;100.00;100462.34;4965779;28;20038;-70
2023/04/23 04:58:58;;;;;;;42.88;23.85;;;;;;;8.55;100.00;100461.44;4965075;28;20031;-71
2023/04/23 05:01:25;;;;;;;42.75;24.23;;;;;;;8.62;100.00;100455.66;4968309;28;20508;-71
2023/04/23 05:03:51;;;;;;;41.72;23.50;;;;;;;8.62;100.00;100460.84;4980536;28;20043;-71
2023/04/23 05:06:16;;;;;;;43.83;23.00;;;;;;;8.59;100.00;100461.97;4966932;28;20038;-71
2023/04/23 05:08:46;;;;;;;45.50;24.48;;;;;;;8.66;100.00;100459.56;4966280;28;20050;-71
2023/04/23 05:11:15;;;;;;;42.63;22.98;;;;;;;8.60;100.00;100460.19;4964778;28;20031;-71
2023/04/23 05:13:41;;;;;;;42.63;23.30;;;;;;;8.58;100.00;100450.00;4971972;28;20035;-71
2023/04/23 05:16:07;;;;;;;45.88;22.83;;;;;;;8.60;100.00;100440.31;4970434;28;20085;-71
2023/04/23 05:18:32;;;;;;;39.35;22.55;;;;;;;8.56;100.00;100442.38;4982143;28;20058;-71
2023/04/23 05:20:58;;;;;;;44.33;23.00;;;;;;;8.62;100.00;100447.91;4980491;28;20038;-71
2023/04/23 05:23:23;;;;;;;42.47;23.27;;;;;;;8.58;100.00;100447.41;4980379;28;20050;-71
2023/04/23 05:25:50;;;;;;;44.63;23.75;;;;;;;8.64;100.00;100453.75;4968877;28;20019;-71
2023/04/23 05:28:16;;;;;;;37.95;21.73;;;;;;;8.62;100.00;100453.88;4981942;28;20039;-71
2023/04/23 05:30:42;;;;;;;42.80;24.02;;;;;;;8.71;100.00;100455.56;4967409;28;20532;-71
2023/04/23 05:33:08;;;;;;;41.75;22.42;;;;;;;8.75;100.00;100459.47;4977603;28;20042;-71
2023/04/23 05:35:33;;;;;;;42.22;22.98;;;;;;;8.72;100.00;100446.88;4968070;28;20034;-71
2023/04/23 05:37:59;;;;;;;42.65;26.00;;;;;;;8.71;100.00;100455.56;4965753;28;20046;-71
2023/04/23 05:40:24;;;;;;;42.90;24.40;;;;;;;8.76;100.00;100458.50;4963868;28;20034;-72
2023/04/23 05:42:49;;;;;;;42.97;24.30;;;;;;;8.84;100.00;100459.53;4969255;28;20031;-71
2023/04/23 05:45:15;;;;;;;42.47;23.30;;;;;;;8.87;100.00;100464.38;4985400;28;20046;-71
2023/04/23 05:47:40;;;;;;;39.60;22.38;;;;;;;8.89;100.00;100463.28;4977582;28;20042;-71
2023/04/23 05:50:06;;;;;;;37.08;21.33;;;;;;;8.87;100.00;100461.78;4968030;28;20030;-71
2023/04/23 05:52:34;;;;;;;42.10;22.40;;;;;;;8.96;100.00;100466.06;4964488;28;20076;-71
2023/04/23 05:54:59;;;;;;;37.95;21.48;;;;;;;9.03;100.00;100454.13;4966699;28;20030;-71
2023/04/23 05:57:25;;;;;;;42.47;21.65;;;;;;;9.19;100.00;100455.16;4964923;28;20046;-71
2023/04/23 05:59:50;;;;;;;39.25;20.80;;;;;;;9.19;100.00;100452.59;4977572;28;20074;-71
2023/04/23 06:02:16;;;;;;;40.60;20.70;;;;;;;9.19;100.00;100447.41;4964473;28;20086;-71
2023/04/23 06:04:41;;;;;;;36.88;18.98;;;;;;;9.11;100.00;100454.16;4981013;28;20102;-71
2023/04/23 06:07:07;;;;;;;33.67;18.98;;;;;;;9.12;100.00;100450.63;4978271;28;20038;-72
2023/04/23 06:09:32;;;;;;;34.78;20.15;;;;;;;9.15;100.00;100452.91;4966810;28;20038;-71
2023/04/23 06:11:58;;;;;;;35.50;20.55;;;;;;;9.18;100.00;100456.16;4962287;28;20448;-71
2023/04/23 06:14:23;;;;;;;39.25;21.23;;;;;;;9.26;100.00;100456.19;4981664;28;20057;-71
2023/04/23 06:16:49;;;;;;;34.67;19.73;;;;;;;9.33;100.00;100459.78;4963948;28;20081;-71
2023/04/23 06:19:15;;;;;;;34.17;18.20;;;;;;;9.44;100.00;100462.06;4967238;28;20031;-71
2023/04/23 06:21:40;;;;;;;32.92;19.20;;;;;;;9.52;100.00;100464.69;4979963;28;20481;-71
2023/04/23 06:24:06;;;;;;;31.83;19.00;;;;;;;9.57;100.00;100456.47;4978827;28;20039;-71
2023/04/23 06:26:32;;;;;;;35.08;19.48;;;;;;;9.68;100.00;100453.56;4966327;28;20062;-71
2023/04/23 06:29:03;;;;;;;30.52;18.00;;;;;;;9.70;100.00;100450.81;4981165;28;20054;-72
2023/04/23 06:31:32;;;;;;;29.10;16.95;;;;;;;9.97;100.00;100462.69;4983383;28;20031;-71
2023/04/23 06:33:57;;;;;;;29.30;17.63;;;;;;;10.13;100.00;100449.75;4968883;28;20035;-71
2023/04/23 06:36:23;;;;;;;28.35;17.10;;;;;;;10.32;100.00;100446.06;4988784;28;20026;-71
2023/04/23 06:38:48;;;;;;;26.80;17.25;;;;;;;10.36;100.00;100441.34;4972602;28;20679;-71
2023/04/23 06:41:14;;;;;;;27.67;15.98;;;;;;;10.48;100.00;100439.22;4968197;28;20042;-71
2023/04/23 06:43:41;;;;;;;31.50;16.20;;;;;;;10.48;100.00;100436.66;4984053;28;20167;-71
2023/04/23 06:46:26;;;;;;;29.08;16.80;;;;;;;10.51;100.00;100438.91;4968034;28;20093;-72
2023/04/23 06:48:52;;;;;;;23.40;14.77;;;;;;;10.59;100.00;100435.50;4973757;28;20440;-72
2023/04/23 06:51:17;;;;;;;25.10;15.07;;;;;;;10.76;100.00;100436.28;4964771;28;20046;-72
2023/04/23 06:53:43;;;;;;;21.05;12.70;;;;;;;10.86;100.00;100431.69;4968078;28;20043;-73
2023/04/23 06:56:08;;;;;;;18.77;12.32;;;;;;;10.97;100.00;100420.97;4982890;28;20034;-72
2023/04/23 06:58:34;;;;;;;26.40;13.15;;;;;;;11.13;100.00;100424.47;4983257;28;20133;-72
2023/04/23 07:01:09;;;;;;;19.77;11.90;;;;;;;11.47;100.00;100424.13;4965424;28;20034;-72
2023/04/23 07:03:35;;;;;;;22.58;12.85;;;;;;;11.98;100.00;100408.91;4983373;28;20057;-72
2023/04/23 07:06:01;;;;;;;17.27;9.48;;;;;;;12.94;100.00;100406.53;4970959;28;20042;-72
2023/04/23 07:08:26;;;;;;;13.82;8.80;;;;;;;13.37;96.71;100400.63;4969912;28;20030;-72
2023/04/23 07:10:52;;;;;;;11.93;7.70;;;;;;;14.08;91.35;100398.09;4970063;28;20050;-72
2023/04/23 07:13:18;;;;;;;12.23;7.28;;;;;;;14.94;87.20;100389.22;4961072;28;20042;-72
2023/04/23 07:15:43;;;;;;;9.73;6.50;;;;;;;15.23;83.28;100390.72;4969313;28;20043;-72
2023/04/23 07:18:09;;;;;;;12.75;6.68;;;;;;;15.75;80.99;100394.47;4966490;28;20038;-72
2023/04/23 07:20:34;;;;;;;13.32;6.50;;;;;;;16.43;80.09;100374.34;4986846;28;20034;-72
2023/04/23 07:23:00;;;;;;;9.93;5.57;;;;;;;17.08;75.20;100380.38;4966454;28;20046;-72
2023/04/23 07:25:26;;;;;;;10.65;4.90;;;;;;;17.42;72.56;100373.16;4968444;28;20041;-72
2023/04/23 07:27:53;;;;;;;10.80;4.53;;;;;;;17.27;70.13;100376.06;4970343;28;20050;-72
2023/04/23 07:30:18;;;;;;;6.90;3.97;;;;;;;17.71;71.21;100378.78;4987088;28;20037;-72
2023/04/23 07:32:44;;;;;;;6.35;3.95;;;;;;;18.00;69.38;100374.75;4964074;28;20035;-73
2023/04/23 07:35:10;;;;;;;9.43;4.68;;;;;;;18.19;66.65;100367.72;4967631;28;20038;-72
2023/04/23 07:37:36;;;;;;;7.07;3.10;;;;;;;18.20;65.81;100371.16;4969429;28;20488;-72
2023/04/23 07:40:02;;;;;;;5.63;2.88;;;;;;;18.43;66.31;100360.81;4969821;28;20069;-73
2023/04/23 07:42:27;;;;;;;8.57;3.30;;;;;;;18.19;64.76;100361.66;4984396;28;20030;-72
2023/04/23 07:44:53;;;;;;;8.95;3.60;;;;;;;18.39;64.43;100367.53;4979326;28;20507;-72
2023/04/23 07:47:18;;;;;;;6.75;2.50;;;;;;;18.69;64.71;100361.56;4985127;28;20117;-72
2023/04/23 07:49:44;;;;;;;9.38;2.95;;;;;;;18.33;64.56;100364.97;4969828;28;20386;-72
2023/04/23 07:52:09;;;;;;;7.55;2.53;;;;;;;18.77;63.18;100356.00;4967441;28;20085;-72
2023/04/23 07:54:35;;;;;;;6.78;2.28;;;;;;;19.21;62.28;100355.84;4967409;28;20489;-72
2023/04/23 07:57:01;;;;;;;8.75;2.72;;;;;;;18.90;62.21;100362.16;4974336;28;20038;-73
2023/04/23 07:59:27;;;;;;;6.78;2.40;;;;;;;19.34;61.10;100354.88;4970420;28;20039;-71
2023/04/23 08:01:53;;;;;;;6.68;2.38;;;;;;;19.61;60.02;100353.44;4963305;28;20089;-72
2023/04/23 08:04:18;;;;;;;7.43;2.22;;;;;;;20.18;59.02;100350.28;4968607;28;20465;-73
2023/04/23 08:06:44;;;;;;;4.28;2.13;;;;;;;20.61;57.45;100341.19;4973047;28;20390;-72
2023/04/23 08:09:09;;;;;;;5.43;2.47;;;;;;;19.88;57.50;100337.25;4969024;28;20045;-72
2023/04/23 08:11:35;;;;;;;6.50;2.22;;;;;;;20.38;57.30;100338.59;4984370;28;20031;-73
2023/04/23 08:14:00;;;;;;;4.93;1.70;;;;;;;20.18;58.20;100336.34;4964028;28;20409;-73
2023/04/23 08:16:26;;;;;;;6.60;2.40;;;;;;;20.42;57.84;100334.47;4967045;28;20089;-73
2023/04/23 08:18:52;;;;;;;7.88;2.30;;;;;;;20.49;54.81;100329.06;4969528;28;20516;-73
2023/04/23 08:21:17;;;;;;;11.05;2.42;;;;;;;20.36;56.05;100335.38;4967550;28;20050;-73
2023/04/23 08:23:42;;;;;;;5.20;1.75;;;;;;;20.56;54.50;100329.75;4965907;28;20046;-73
2023/04/23 08:26:09;;;;;;;5.15;1.77;;;;;;;21.16;54.93;100325.88;4969323;28;20432;-73
2023/04/23 08:28:34;;;;;;;7.05;2.10;;;;;;;21.39;53.39;100332.84;4967297;28;20445;-72
2023/04/23 08:31:00;;;;;;;7.43;1.90;;;;;;;21.44;53.10;100330.31;4985899;28;20038;-73
2023/04/23 08:33:26;;;;;;;5.38;2.47;;;;;;;20.80;53.31;100333.94;4969857;28;20034;-72
2023/04/23 08:35:51;;;;;;;8.70;2.25;;;;;;;20.72;54.50;100342.22;4967262;28;20037;-74
2023/04/23 08:38:17;;;;;;;6.75;2.20;;;;;;;19.99;55.85;100336.47;4963619;28;20505;-73
2023/04/23 08:40:44;;;;;;;6.32;2.03;;;;;;;20.34;56.18;100330.38;4965469;28;20097;-74
2023/04/23 08:43:15;;;;;;;4.07;1.92;;;;;;;20.06;55.63;100339.00;4978187;28;20038;-73
2023/04/23 08:45:46;;;;;;;7.03;2.28;;;;;;;19.11;58.50;100337.22;4964204;28;20473;-73
2023/04/23 08:48:12;;;;;;;10.30;1.70;;;;;;;19.15;58.75;100331.28;4964661;28;20050;-73
2023/04/23 08:50:41;;;;;;;5.88;1.88;;;;;;;18.93;56.45;100332.78;4978328;28;20040;-74
2023/04/23 08:53:07;;;;;;;6.90;1.42;;;;;;;18.68;59.15;100336.31;4966947;28;20050;-73
2023/04/23 08:55:34;;;;;;;6.72;2.00;;;;;;;18.52;58.78;100327.22;4966808;28;20034;-74
2023/04/23 08:58:01;;;;;;;5.57;1.85;;;;;;;19.01;56.97;100333.28;4981622;28;20039;-73
2023/04/23 09:00:28;;;;;;;8.98;1.92;;;;;;;18.80;56.75;100331.13;4962206;28;20031;-73
2023/04/23 09:02:54;;;;;;;5.93;2.08;;;;;;;18.48;58.97;100331.31;4947396;28;20054;-73
2023/04/23 09:05:20;;;;;;;4.85;1.70;;;;;;;18.19;58.09;100330.97;4964972;28;20035;-75
2023/04/23 09:07:45;;;;;;;4.25;1.75;;;;;;;18.20;59.81;100326.56;4962987;28;20085;-73
2023/04/23 09:10:13;;;;;;;7.70;1.67;;;;;;;18.60;60.11;100323.47;4966796;28;20504;-73
2023/04/23 09:12:41;;;;;;;6.97;1.77;;;;;;;19.60;57.83;100319.50;4963282;28;20039;-73
2023/04/23 09:15:11;;;;;;;7.45;2.03;;;;;;;19.71;53.25;100313.44;4963827;28;20023;-74
2023/04/23 09:17:45;;;;;;;7.55;1.60;;;;;;;19.84;56.69;100318.50;4964666;28;20074;-73
2023/04/23 09:20:12;;;;;;;4.22;2.00;;;;;;;19.14;56.48;100315.75;4965056;28;20062;-73
2023/04/23 09:22:48;;;;;;;6.20;1.75;;;;;;;18.56;55.74;100315.25;4965511;28;20062;-74
2023/04/23 09:25:16;;;;;;;4.53;1.50;;;;;;;19.35;56.08;100317.84;4963335;28;20122;-74
2023/04/23 09:27:42;;;;;;;5.65;1.80;;;;;;;19.35;55.55;100311.81;4967544;28;20050;-73
2023/04/23 09:30:09;;;;;;;9.85;1.63;;;;;;;19.28;56.96;100311.88;4981087;28;20046;-74
2023/04/23 09:32:41;;;;;;;5.57;1.15;;;;;;;20.23;53.63;100303.03;4965311;28;20775;-74
2023/04/23 09:35:12;;;;;;;5.05;1.58;;;;;;;20.56;53.01;100296.28;4962715;28;20046;-74
2023/04/23 09:37:40;;;;;;;5.18;1.00;;;;;;;20.41;50.72;100301.28;4980642;28;20495;-74
2023/04/23 09:40:09;;;;;;;7.88;1.38;;;;;;;20.34;51.56;100295.31;4965617;28;20085;-74
2023/04/23 09:42:36;;;;;;;7.43;1.35;;;;;;;19.96;47.83;100291.38;4967141;28;20126;-73
2023/04/23 09:45:06;;;;;;;4.68;1.02;;;;;;;19.41;51.65;100292.50;4967617;28;20106;-76
2023/04/23 09:47:33;;;;;;;7.50;1.55;;;;;;;19.52;52.76;100293.53;4966667;28;20691;-73
2023/04/23 09:49:59;;;;;;;7.97;1.20;;;;;;;19.64;52.27;100286.44;4977350;28;20621;-74
2023/04/23 09:52:25;;;;;;;8.15;1.33;;;;;;;19.37;55.01;100289.50;4965001;28;20046;-74
2023/04/23 09:54:51;;;;;;;7.50;1.40;;;;;;;19.31;53.57;100286.97;4979614;28;20057;-74
2023/04/23 09:57:17;;;;;;;6.88;1.35;;;;;;;19.26;53.90;100280.56;4983814;28;20597;-74
2023/04/23 09:59:43;;;;;;;10.52;1.42;;;;;;;19.41;51.14;100289.84;4967541;28;20557;-73
2023/04/23 10:02:10;;;;;;;4.20;1.10;;;;;;;19.37;52.29;100283.47;4985768;28;20113;-74
2023/04/23 10:04:37;;;;;;;14.05;1.90;;;;;;;19.43;53.11;100282.53;4970697;28;20042;-74
2023/04/23 10:07:07;;;;;;;5.53;1.30;;;;;;;19.08;53.25;100280.66;4968734;28;20074;-74
2023/04/23 10:09:33;;;;;;;9.00;1.40;;;;;;;18.76;52.58;100273.00;4969451;28;20469;-73
2023/04/23 10:12:03;;;;;;;7.28;1.45;;;;;;;18.71;50.32;100272.06;4977774;28;20492;-74
2023/04/23 10:14:29;;;;;;;4.85;1.20;;;;;;;18.85;51.06;100271.69;4965856;28;20039;-73
2023/04/23 10:16:59;;;;;;;3.75;1.45;;;;;;;19.08;50.78;100270.16;4971572;28;20049;-74
2023/04/23 10:19:26;;;;;;;5.57;1.02;;;;;;;19.28;51.72;100276.94;4972742;28;20073;-74
2023/04/23 10:22:03;;;;;;;6.22;1.42;;;;;;;19.24;52.00;100274.75;4968439;28;20049;-74
2023/04/23 10:24:32;;;;;;;6.07;1.95;;;;;;;19.32;50.30;100268.34;4984328;28;20878;-74
2023/04/23 10:27:03;;;;;;;6.22;1.10;;;;;;;19.70;51.19;100267.13;4971436;28;20560;-74
2023/04/23 10:29:31;;;;;;;3.08;1.02;;;;;;;20.19;51.35;100264.22;4967285;28;20734;-73
2023/04/23 10:31:58;;;;;;;3.03;1.17;;;;;;;20.32;49.98;100253.44;4983410;28;20105;-74
2023/04/23 10:34:25;;;;;;;6.40;1.40;;;;;;;20.20;48.16;100261.38;4984142;28;20047;-73
2023/04/23 10:36:52;;;;;;;6.05;1.35;;;;;;;20.00;49.68;100258.31;4968387;28;20019;-74
2023/04/23 10:39:19;;;;;;;4.10;1.13;;;;;;;19.35;50.28;100259.22;4968406;28;20630;-73
2023/04/23 10:41:47;;;;;;;5.80;0.90;;;;;;;19.47;49.44;100251.34;4969626;28;20035;-74
2023/04/23 10:44:15;;;;;;;4.90;0.80;;;;;;;19.55;51.08;100241.31;4969438;28;20035;-74
2023/04/23 10:46:50;;;;;;;6.88;1.00;;;;;;;19.65;49.76;100244.16;4968594;28;20031;-74
2023/04/23 10:49:16;;;;;;;5.13;1.20;;;;;;;19.60;51.08;100238.75;4969602;28;20461;-74
2023/04/23 10:51:45;;;;;;;3.05;0.88;;;;;;;19.65;50.16;100236.25;4972825;28;20038;-75
2023/04/23 10:54:13;;;;;;;3.88;0.85;;;;;;;19.69;49.57;100238.44;4967823;28;20054;-74
2023/04/23 10:56:40;;;;;;;5.47;1.15;;;;;;;19.57;52.69;100238.41;4973306;28;20086;-74
2023/04/23 10:59:21;;;;;;;7.20;1.20;;;;;;;19.40;49.61;100233.03;4982459;28;20509;-74
2023/04/23 11:01:49;;;;;;;3.50;0.85;;;;;;;19.16;50.18;100233.03;4981438;28;20477;-74
2023/04/23 11:04:22;;;;;;;3.28;0.82;;;;;;;19.03;49.14;100231.41;4968320;28;20141;-74
2023/04/23 11:06:48;;;;;;;2.80;0.70;;;;;;;18.92;51.21;100226.13;4970535;28;20042;-74
2023/04/23 11:09:40;;;;;;;5.38;0.80;;;;;;;18.74;49.73;100219.06;4982414;28;20126;-73
2023/04/23 11:12:25;;;;;;;3.78;0.85;;;;;;;18.61;51.00;100223.50;4981104;28;20031;-74